Time;durP1;ratioP1;P1;durP2;ratioP2;P2;SDS_P1;SDS_P2;PMS_P1;PMS_P2;Temp;Humidity;BMP_temperature;BMP_pressure;BME280_temperature;BME280_humidity;BME280_pressure;Samples;Min_cycle;Max_cycle;Signal;HPM_P1;HPM_P2
2023/09/26 00:01:27;;;;;;;14.38;8.35;;;;;;;;;;4975322;28;20111;-64
2023/09/26 00:03:52;;;;;;;10.15;8.00;;;;;;;;;;4975493;28;20035;-63
2023/09/26 00:06:19;;;;;;;15.48;8.45;;;;;;;;;;4971754;28;20515;-63
2023/09/26 00:08:45;;;;;;;11.48;8.30;;;;;;;;;;4975184;28;20022;-64
2023/09/26 00:11:10;;;;;;;12.13;8.73;;;;;;;;;;4974532;28;20420;-66
2023/09/26 00:13:35;;;;;;;16.38;8.70;;;;;;;;;;4974751;28;20037;-64
2023/09/26 00:16:01;;;;;;;12.70;8.75;;;;;;;;;;4974430;28;20023;-64
2023/09/26 00:18:26;;;;;;;16.95;11.25;;;;;;;;;;4974865;28;20050;-64
2023/09/26 00:20:52;;;;;;;17.02;12.57;;;;;;;;;;4975047;28;20462;-64
2023/09/26 00:23:17;;;;;;;16.00;12.40;;;;;;;;;;4971205;28;20275;-65
2023/09/26 00:25:44;;;;;;;16.05;10.93;;;;;;;;;;4964007;28;20469;-61
2023/09/26 00:28:10;;;;;;;13.98;10.30;;;;;;;;;;4964126;28;20361;-65
2023/09/26 00:30:35;;;;;;;15.57;9.68;;;;;;;;;;4974145;28;20085;-64
2023/09/26 00:33:01;;;;;;;12.77;9.57;;;;;;;;;;4974615;28;20023;-61
2023/09/26 00:35:26;;;;;;;13.18;8.45;;;;;;;;;;4974516;28;20053;-62
2023/09/26 00:37:52;;;;;;;11.13;8.38;;;;;;;;;;4974973;28;20023;-63
2023/09/26 00:40:21;;;;;;;11.68;8.93;;;;;;;;;;4979818;28;20102;-66
2023/09/26 00:42:47;;;;;;;10.90;8.20;;;;;;;;;;4993628;28;20022;-62
2023/09/26 00:45:13;;;;;;;11.02;7.72;;;;;;;;;;4974442;28;20038;-63
2023/09/26 00:47:39;;;;;;;10.48;7.82;;;;;;;;;;4974482;28;20397;-65
2023/09/26 00:50:15;;;;;;;10.65;8.07;;;;;;;;;;4974731;28;20050;-66
2023/09/26 00:52:49;;;;;;;10.55;7.32;;;;;;;;;;4974448;28;20061;-65
2023/09/26 00:55:17;;;;;;;11.13;7.57;;;;;;;;;;4974522;28;20054;-65
2023/09/26 00:57:44;;;;;;;10.45;7.70;;;;;;;;;;4974548;28;20415;-64
2023/09/26 01:00:15;;;;;;;11.75;7.50;;;;;;;;;;4974341;28;20427;-62
2023/09/26 01:02:41;;;;;;;10.27;7.60;;;;;;;;;;4974601;28;20105;-61
2023/09/26 01:05:08;;;;;;;9.95;7.18;;;;;;;;;;4974400;28;20110;-63
2023/09/26 01:07:34;;;;;;;11.15;7.60;;;;;;;;;;4974291;28;20034;-64
2023/09/26 01:10:00;;;;;;;11.88;7.72;;;;;;;;;;4974354;28;20031;-63
2023/09/26 01:12:27;;;;;;;10.18;8.00;;;;;;;;;;4974445;28;20388;-62
2023/09/26 01:14:54;;;;;;;9.10;7.40;;;;;;;;;;4974058;28;20061;-62
2023/09/26 01:17:19;;;;;;;10.65;8.30;;;;;;;;;;4974225;28;20081;-62
2023/09/26 01:19:45;;;;;;;12.60;7.70;;;;;;;;;;4974308;28;20022;-62
2023/09/26 01:22:16;;;;;;;12.68;8.10;;;;;;;;;;4974228;28;20110;-64
2023/09/26 01:24:41;;;;;;;10.60;7.55;;;;;;;;;;4974100;28;20023;-63
2023/09/26 01:27:07;;;;;;;10.68;7.53;;;;;;;;;;4973982;28;20042;-62
2023/09/26 01:29:32;;;;;;;13.80;7.40;;;;;;;;;;4959610;28;20376;-62
2023/09/26 01:31:57;;;;;;;10.68;8.15;;;;;;;;;;4954865;28;20047;-62
2023/09/26 01:34:23;;;;;;;9.10;7.35;;;;;;;;;;4954690;28;20027;-62
2023/09/26 01:36:48;;;;;;;11.27;7.72;;;;;;;;;;4954711;29;20023;-62
2023/09/26 01:39:14;;;;;;;10.60;7.97;;;;;;;;;;4954696;28;20023;-64
2023/09/26 01:41:39;;;;;;;9.13;7.28;;;;;;;;;;4986485;28;20050;-62
2023/09/26 01:44:06;;;;;;;12.05;8.00;;;;;;;;;;4984372;28;20117;-65
2023/09/26 01:46:32;;;;;;;11.40;7.68;;;;;;;;;;4973716;28;20041;-63
2023/09/26 01:48:57;;;;;;;17.33;7.75;;;;;;;;;;4973793;28;20477;-62
2023/09/26 01:51:23;;;;;;;11.70;8.13;;;;;;;;;;4973917;28;20035;-64
2023/09/26 01:53:48;;;;;;;10.10;7.75;;;;;;;;;;4973591;28;20038;-63
2023/09/26 01:56:14;;;;;;;13.57;8.40;;;;;;;;;;4973847;28;20104;-62
2023/09/26 01:58:39;;;;;;;11.20;7.65;;;;;;;;;;4973791;28;20110;-65
2023/09/26 02:01:05;;;;;;;10.63;7.78;;;;;;;;;;4973764;28;20101;-62
2023/09/26 02:03:31;;;;;;;12.32;7.80;;;;;;;;;;4973906;28;20030;-62
2023/09/26 02:05:57;;;;;;;13.70;7.32;;;;;;;;;;4973594;28;20030;-62
2023/09/26 02:08:23;;;;;;;8.48;7.50;;;;;;;;;;4973854;28;20092;-64
2023/09/26 02:10:48;;;;;;;11.75;7.53;;;;;;;;;;4973820;28;20453;-63
2023/09/26 02:13:14;;;;;;;11.15;7.35;;;;;;;;;;4973538;28;20174;-62
2023/09/26 02:15:39;;;;;;;11.20;7.20;;;;;;;;;;4973663;28;20134;-63
2023/09/26 02:18:05;;;;;;;13.23;7.32;;;;;;;;;;4973929;28;20025;-62
2023/09/26 02:20:31;;;;;;;8.35;6.40;;;;;;;;;;4973736;28;20026;-62
2023/09/26 02:22:57;;;;;;;8.75;6.40;;;;;;;;;;4973662;28;20022;-61
2023/09/26 02:25:23;;;;;;;9.95;6.25;;;;;;;;;;4973445;28;20452;-65
2023/09/26 02:27:49;;;;;;;11.10;6.45;;;;;;;;;;4972815;28;20035;-63
2023/09/26 02:30:20;;;;;;;8.75;6.55;;;;;;;;;;4954362;29;20118;-62
2023/09/26 02:32:46;;;;;;;9.77;7.28;;;;;;;;;;4954277;29;20074;-62
2023/09/26 02:35:15;;;;;;;7.93;6.47;;;;;;;;;;4955344;28;20063;-62
2023/09/26 02:37:41;;;;;;;10.68;6.95;;;;;;;;;;4957773;28;20024;-62
2023/09/26 02:40:09;;;;;;;9.48;6.78;;;;;;;;;;4965034;28;20049;-62
2023/09/26 02:42:35;;;;;;;9.90;7.30;;;;;;;;;;4996205;28;20034;-61
2023/09/26 02:45:02;;;;;;;11.27;7.03;;;;;;;;;;4979218;28;20053;-62
2023/09/26 02:47:27;;;;;;;12.27;7.18;;;;;;;;;;4976777;28;20039;-62
2023/09/26 02:49:53;;;;;;;11.07;6.88;;;;;;;;;;4977016;28;20030;-62
2023/09/26 02:52:18;;;;;;;12.52;7.38;;;;;;;;;;4976864;28;20031;-62
2023/09/26 02:54:44;;;;;;;12.05;6.55;;;;;;;;;;4976495;28;20031;-62
2023/09/26 02:57:09;;;;;;;15.30;6.90;;;;;;;;;;4976177;28;20031;-64
2023/09/26 02:59:35;;;;;;;12.77;7.28;;;;;;;;;;4976830;28;20101;-62
2023/09/26 03:02:00;;;;;;;8.48;6.63;;;;;;;;;;4976667;28;20384;-63
2023/09/26 03:04:26;;;;;;;10.90;6.70;;;;;;;;;;4976562;28;20027;-64
2023/09/26 03:06:52;;;;;;;9.02;8.02;;;;;;;;;;4976439;28;20030;-62
2023/09/26 03:09:17;;;;;;;9.63;7.75;;;;;;;;;;4976475;28;20369;-62
2023/09/26 03:11:46;;;;;;;14.02;7.88;;;;;;;;;;4976208;28;20031;-62
2023/09/26 03:14:11;;;;;;;15.88;8.45;;;;;;;;;;4976311;28;20038;-65
2023/09/26 03:16:37;;;;;;;9.75;7.40;;;;;;;;;;4976316;28;20026;-65
2023/09/26 03:19:02;;;;;;;12.25;7.07;;;;;;;;;;4976188;28;20029;-62
2023/09/26 03:21:28;;;;;;;10.68;7.70;;;;;;;;;;4976307;28;20245;-62
2023/09/26 03:23:53;;;;;;;10.85;7.47;;;;;;;;;;4975959;28;20015;-64
2023/09/26 03:26:19;;;;;;;9.88;7.85;;;;;;;;;;4975663;28;20149;-63
2023/09/26 03:28:44;;;;;;;9.70;6.53;;;;;;;;;;4968115;28;20086;-62
2023/09/26 03:31:10;;;;;;;10.50;7.30;;;;;;;;;;4956807;29;20198;-62
2023/09/26 03:33:36;;;;;;;11.27;6.93;;;;;;;;;;4957007;29;20365;-65
2023/09/26 03:36:05;;;;;;;12.20;7.38;;;;;;;;;;4956621;28;20038;-62
2023/09/26 03:38:31;;;;;;;13.88;7.75;;;;;;;;;;4956479;28;20094;-62
2023/09/26 03:41:00;;;;;;;12.30;7.82;;;;;;;;;;4977216;28;20121;-62
2023/09/26 03:43:26;;;;;;;12.63;7.53;;;;;;;;;;4991763;28;20232;-62
2023/09/26 03:45:53;;;;;;;12.98;7.15;;;;;;;;;;4975776;28;20030;-62
2023/09/26 03:48:19;;;;;;;13.50;8.20;;;;;;;;;;4975587;28;20085;-62
2023/09/26 03:50:46;;;;;;;12.02;7.20;;;;;;;;;;4975781;28;20027;-63
2023/09/26 03:53:12;;;;;;;11.88;7.30;;;;;;;;;;4975496;28;20409;-62
2023/09/26 03:55:38;;;;;;;10.52;7.32;;;;;;;;;;4975520;28;20031;-62
2023/09/26 03:58:03;;;;;;;9.23;7.13;;;;;;;;;;4975634;28;20460;-61
2023/09/26 04:00:29;;;;;;;11.85;7.93;;;;;;;;;;4975765;28;20159;-62
2023/09/26 04:02:56;;;;;;;12.20;7.90;;;;;;;;;;4975571;28;20070;-62
2023/09/26 04:05:22;;;;;;;10.05;8.18;;;;;;;;;;4975425;28;20494;-62
2023/09/26 04:07:48;;;;;;;11.40;8.30;;;;;;;;;;4975244;28;20027;-62
2023/09/26 04:10:13;;;;;;;11.77;8.43;;;;;;;;;;4975050;28;20477;-61
2023/09/26 04:12:39;;;;;;;13.48;8.32;;;;;;;;;;4975434;28;20453;-61
2023/09/26 04:15:05;;;;;;;13.95;8.32;;;;;;;;;;4975432;28;20508;-62
2023/09/26 04:17:30;;;;;;;13.07;7.68;;;;;;;;;;4975159;28;20023;-62
2023/09/26 04:19:57;;;;;;;10.40;7.57;;;;;;;;;;4975182;28;20086;-61
2023/09/26 04:22:23;;;;;;;10.65;7.60;;;;;;;;;;4974951;28;20110;-62
2023/09/26 04:24:48;;;;;;;13.68;6.90;;;;;;;;;;4975015;28;20077;-62
2023/09/26 04:27:14;;;;;;;9.02;7.28;;;;;;;;;;4974655;28;20113;-62
2023/09/26 04:29:40;;;;;;;12.48;7.90;;;;;;;;;;4959512;28;20027;-61
2023/09/26 04:32:05;;;;;;;10.18;6.65;;;;;;;;;;4955621;28;20035;-65
2023/09/26 04:34:32;;;;;;;11.23;8.27;;;;;;;;;;4955530;28;20034;-62
2023/09/26 04:36:57;;;;;;;11.43;6.82;;;;;;;;;;4955457;28;20024;-61
2023/09/26 04:39:23;;;;;;;15.80;7.03;;;;;;;;;;4955394;28;20027;-62
2023/09/26 04:41:48;;;;;;;13.75;8.90;;;;;;;;;;4989856;28;20031;-63
2023/09/26 04:44:14;;;;;;;13.35;8.13;;;;;;;;;;4984140;28;20121;-61
2023/09/26 04:46:39;;;;;;;11.05;7.65;;;;;;;;;;4974790;28;20027;-62
2023/09/26 04:49:05;;;;;;;16.33;8.60;;;;;;;;;;4974717;28;20038;-62
2023/09/26 04:51:30;;;;;;;15.93;8.30;;;;;;;;;;4974516;28;20035;-62
2023/09/26 04:53:58;;;;;;;17.20;7.95;;;;;;;;;;4974729;28;20022;-64
2023/09/26 04:56:23;;;;;;;17.88;7.78;;;;;;;;;;4974520;28;20049;-62
2023/09/26 04:58:49;;;;;;;17.60;8.55;;;;;;;;;;4974355;28;20511;-62
2023/09/26 05:01:15;;;;;;;12.68;7.82;;;;;;;;;;4974768;28;20027;-63
2023/09/26 05:03:44;;;;;;;13.52;9.15;;;;;;;;;;4974621;28;20121;-63
2023/09/26 05:06:11;;;;;;;22.95;8.73;;;;;;;;;;4974372;28;20046;-62
2023/09/26 05:08:37;;;;;;;18.25;8.45;;;;;;;;;;4974553;28;20030;-62
2023/09/26 05:11:03;;;;;;;12.55;8.23;;;;;;;;;;4974442;28;20023;-63
2023/09/26 05:13:29;;;;;;;15.50;8.40;;;;;;;;;;4974444;28;20408;-63
2023/09/26 05:15:55;;;;;;;11.32;7.95;;;;;;;;;;4974504;28;20038;-62
2023/09/26 05:18:22;;;;;;;13.68;7.95;;;;;;;;;;4974371;28;20023;-62
2023/09/26 05:20:48;;;;;;;17.27;7.40;;;;;;;;;;4974285;28;20074;-62
2023/09/26 05:23:13;;;;;;;22.85;16.27;;;;;;;;;;4974266;28;20057;-63
2023/09/26 05:25:38;;;;;;;16.55;10.88;;;;;;;;;;4974177;28;20144;-63
2023/09/26 05:28:05;;;;;;;17.73;10.02;;;;;;;;;;4971587;28;20153;-63
2023/09/26 05:30:30;;;;;;;17.88;10.02;;;;;;;;;;4954910;28;20162;-62
2023/09/26 05:32:56;;;;;;;14.43;9.60;;;;;;;;;;4954743;28;20068;-62
2023/09/26 05:35:21;;;;;;;19.90;9.85;;;;;;;;;;4954578;28;20034;-62
2023/09/26 05:37:47;;;;;;;18.35;9.65;;;;;;;;;;4954816;29;20031;-62
2023/09/26 05:40:12;;;;;;;17.13;9.05;;;;;;;;;;4963687;28;20019;-62
2023/09/26 05:42:39;;;;;;;14.10;9.15;;;;;;;;;;4993414;28;20073;-62
2023/09/26 05:45:08;;;;;;;14.88;8.90;;;;;;;;;;4976285;28;20038;-62
2023/09/26 05:47:34;;;;;;;21.80;9.07;;;;;;;;;;4973859;28;20101;-62
2023/09/26 05:50:00;;;;;;;20.80;9.52;;;;;;;;;;4973797;28;20129;-63
2023/09/26 05:52:26;;;;;;;14.88;8.50;;;;;;;;;;4972749;28;20023;-62
2023/09/26 05:54:51;;;;;;;14.82;8.15;;;;;;;;;;4973955;28;20431;-62
2023/09/26 05:57:18;;;;;;;15.70;9.00;;;;;;;;;;4973699;28;20033;-63
2023/09/26 05:59:44;;;;;;;12.73;8.95;;;;;;;;;;4973871;28;20073;-62
2023/09/26 06:02:13;;;;;;;23.70;8.55;;;;;;;;;;4974000;28;20058;-62
2023/09/26 06:04:44;;;;;;;17.73;7.93;;;;;;;;;;4973744;28;20147;-63
2023/09/26 06:07:10;;;;;;;17.88;8.18;;;;;;;;;;4973801;28;20054;-63
2023/09/26 06:09:36;;;;;;;15.07;8.95;;;;;;;;;;4973643;28;20058;-63
2023/09/26 06:12:05;;;;;;;21.45;7.68;;;;;;;;;;4977737;28;20384;-65
2023/09/26 06:14:34;;;;;;;13.10;7.82;;;;;;;;;;4977595;28;20019;-63
2023/09/26 06:17:00;;;;;;;12.57;7.28;;;;;;;;;;4977629;28;20551;-63
2023/09/26 06:19:25;;;;;;;14.00;7.60;;;;;;;;;;4977137;28;20054;-63
2023/09/26 06:21:50;;;;;;;12.68;6.50;;;;;;;;;;4977654;28;20105;-63
2023/09/26 06:24:16;;;;;;;14.15;7.20;;;;;;;;;;4977566;28;20035;-63
2023/09/26 06:26:41;;;;;;;13.10;7.10;;;;;;;;;;4978885;28;20042;-63
2023/09/26 06:29:07;;;;;;;12.75;7.32;;;;;;;;;;4988925;28;20514;-64
2023/09/26 06:31:32;;;;;;;9.98;7.03;;;;;;;;;;4982042;28;20026;-63
2023/09/26 06:34:00;;;;;;;14.20;7.88;;;;;;;;;;4988229;28;20146;-64
2023/09/26 06:36:30;;;;;;;14.95;8.05;;;;;;;;;;4981420;28;20074;-63
2023/09/26 06:38:56;;;;;;;12.50;7.70;;;;;;;;;;4993146;28;20027;-63
2023/09/26 06:41:21;;;;;;;10.60;6.95;;;;;;;;;;4990487;28;20534;-64
2023/09/26 06:43:47;;;;;;;15.18;6.93;;;;;;;;;;4986227;28;20527;-65
2023/09/26 06:46:12;;;;;;;13.43;7.40;;;;;;;;;;4990068;28;20086;-63
2023/09/26 06:48:38;;;;;;;15.60;7.35;;;;;;;;;;4973772;28;20070;-64
2023/09/26 06:51:04;;;;;;;14.35;7.63;;;;;;;;;;4976525;28;20078;-64
2023/09/26 06:53:30;;;;;;;15.10;7.43;;;;;;;;;;4994037;28;20025;-63
2023/09/26 06:56:02;;;;;;;13.38;8.20;;;;;;;;;;4978196;28;20034;-64
2023/09/26 06:58:28;;;;;;;18.52;7.82;;;;;;;;;;4987384;28;20019;-64
2023/09/26 07:00:53;;;;;;;27.92;8.68;;;;;;;;;;4976607;28;20433;-65
2023/09/26 07:03:19;;;;;;;17.92;8.85;;;;;;;;;;4976292;28;20476;-66
2023/09/26 07:05:44;;;;;;;19.00;9.85;;;;;;;;;;4976254;28;20031;-64
2023/09/26 07:08:12;;;;;;;23.85;9.48;;;;;;;;;;4976515;28;20023;-64
2023/09/26 07:10:38;;;;;;;31.02;9.98;;;;;;;;;;4976573;28;20050;-64
2023/09/26 07:13:04;;;;;;;28.20;9.85;;;;;;;;;;4976529;28;20065;-64
2023/09/26 07:15:32;;;;;;;26.23;10.35;;;;;;;;;;4975999;28;20397;-63
2023/09/26 07:17:58;;;;;;;18.08;10.57;;;;;;;;;;4975964;28;20447;-64
2023/09/26 07:20:25;;;;;;;19.17;10.10;;;;;;;;;;4976068;28;20053;-64
2023/09/26 07:22:50;;;;;;;30.63;10.13;;;;;;;;;;4982269;28;20384;-64
2023/09/26 07:25:16;;;;;;;21.13;10.57;;;;;;;;;;4976016;28;20056;-64
2023/09/26 07:27:41;;;;;;;20.20;10.60;;;;;;;;;;4976017;28;20073;-65
2023/09/26 07:30:08;;;;;;;23.10;11.20;;;;;;;;;;4975988;28;20027;-63
2023/09/26 07:32:34;;;;;;;23.48;10.65;;;;;;;;;;4984392;28;20031;-63
2023/09/26 07:35:00;;;;;;;17.70;10.32;;;;;;;;;;4995582;28;20073;-65
2023/09/26 07:37:25;;;;;;;23.88;10.48;;;;;;;;;;4995247;28;20433;-64
2023/09/26 07:39:51;;;;;;;18.77;10.68;;;;;;;;;;4993754;28;20109;-64
2023/09/26 07:42:20;;;;;;;15.65;10.52;;;;;;;;;;4975821;28;20022;-64
2023/09/26 07:44:45;;;;;;;22.52;10.07;;;;;;;;;;4980749;28;20030;-63
2023/09/26 07:47:11;;;;;;;21.60;11.18;;;;;;;;;;4994630;28;20041;-64
2023/09/26 07:49:37;;;;;;;16.85;9.85;;;;;;;;;;4995095;28;20141;-63
2023/09/26 07:52:03;;;;;;;22.23;10.38;;;;;;;;;;4995192;28;20559;-64
2023/09/26 07:54:28;;;;;;;22.17;10.82;;;;;;;;;;4995129;28;20460;-63
2023/09/26 07:56:54;;;;;;;23.13;10.68;;;;;;;;;;4994996;28;20066;-64
2023/09/26 07:59:19;;;;;;;19.58;9.40;;;;;;;;;;4981604;28;20432;-65
2023/09/26 08:01:45;;;;;;;19.98;10.15;;;;;;;;;;4975328;28;20510;-63
2023/09/26 08:04:10;;;;;;;19.15;8.90;;;;;;;;;;4975324;28;20026;-64
2023/09/26 08:06:35;;;;;;;20.17;10.30;;;;;;;;;;4975340;28;20037;-64
2023/09/26 08:09:01;;;;;;;20.02;8.38;;;;;;;;;;4975482;28;20105;-63
2023/09/26 08:11:28;;;;;;;22.48;8.38;;;;;;;;;;4975351;28;20039;-65
2023/09/26 08:13:54;;;;;;;15.63;8.40;;;;;;;;;;4975334;28;20487;-63
2023/09/26 08:16:21;;;;;;;15.23;8.90;;;;;;;;;;4975110;28;20030;-64
2023/09/26 08:18:47;;;;;;;24.65;8.45;;;;;;;;;;4975230;28;20030;-64
2023/09/26 08:21:13;;;;;;;18.35;8.88;;;;;;;;;;4975284;28;20030;-64
2023/09/26 08:23:39;;;;;;;17.48;8.77;;;;;;;;;;4974900;28;20031;-64
2023/09/26 08:26:10;;;;;;;14.63;8.40;;;;;;;;;;4974888;28;20109;-64
2023/09/26 08:28:36;;;;;;;16.38;8.82;;;;;;;;;;4974994;28;20384;-64
2023/09/26 08:31:07;;;;;;;17.40;8.85;;;;;;;;;;4974878;28;20029;-64
2023/09/26 08:33:33;;;;;;;14.20;8.55;;;;;;;;;;4974047;28;20038;-64
2023/09/26 08:35:59;;;;;;;12.77;8.40;;;;;;;;;;4989718;28;20030;-64
2023/09/26 08:38:25;;;;;;;14.02;8.13;;;;;;;;;;4994245;28;20033;-64
2023/09/26 08:40:53;;;;;;;10.68;7.75;;;;;;;;;;4984835;28;20030;-63
2023/09/26 08:43:24;;;;;;;14.65;8.10;;;;;;;;;;4972969;28;20117;-64
2023/09/26 08:45:50;;;;;;;12.98;7.53;;;;;;;;;;4974665;28;20055;-63
2023/09/26 08:48:17;;;;;;;11.57;7.40;;;;;;;;;;4974565;28;20101;-64
2023/09/26 08:50:42;;;;;;;13.93;7.90;;;;;;;;;;4974592;28;20055;-64
2023/09/26 08:53:08;;;;;;;12.60;7.50;;;;;;;;;;4974666;28;20034;-64
2023/09/26 08:55:34;;;;;;;12.43;7.90;;;;;;;;;;4974793;28;20072;-64
2023/09/26 08:58:00;;;;;;;12.40;7.60;;;;;;;;;;4991981;28;20035;-64
2023/09/26 09:00:26;;;;;;;11.45;7.47;;;;;;;;;;4974501;28;20035;-64
2023/09/26 09:02:52;;;;;;;14.45;8.18;;;;;;;;;;4974424;28;20070;-64
2023/09/26 09:05:19;;;;;;;13.98;7.90;;;;;;;;;;4974299;28;20093;-64
2023/09/26 09:07:45;;;;;;;16.55;8.70;;;;;;;;;;4974305;28;20031;-64
2023/09/26 09:10:13;;;;;;;17.75;8.65;;;;;;;;;;4974532;28;20380;-64
2023/09/26 09:12:40;;;;;;;13.27;8.20;;;;;;;;;;4974016;28;20428;-63
2023/09/26 09:15:15;;;;;;;13.07;8.05;;;;;;;;;;4974159;28;20034;-64
2023/09/26 09:17:48;;;;;;;13.60;8.48;;;;;;;;;;4974129;28;20539;-63
2023/09/26 09:20:26;;;;;;;13.10;8.57;;;;;;;;;;4974161;28;20442;-64
2023/09/26 09:23:02;;;;;;;10.90;8.30;;;;;;;;;;4973401;28;20041;-64
2023/09/26 09:25:35;;;;;;;14.90;8.68;;;;;;;;;;4973868;28;20465;-64
2023/09/26 09:28:01;;;;;;;10.82;8.20;;;;;;;;;;4973850;28;20400;-63
2023/09/26 09:30:28;;;;;;;14.52;8.52;;;;;;;;;;4974067;28;20026;-64
2023/09/26 09:32:53;;;;;;;14.30;8.07;;;;;;;;;;4973807;28;20027;-64
2023/09/26 09:35:19;;;;;;;12.40;7.68;;;;;;;;;;4973834;28;20039;-63
2023/09/26 09:37:46;;;;;;;12.40;8.00;;;;;;;;;;4973720;28;20023;-64
2023/09/26 09:40:19;;;;;;;11.65;7.65;;;;;;;;;;4973156;28;20033;-63
2023/09/26 09:42:47;;;;;;;9.82;7.70;;;;;;;;;;4973579;28;20030;-63
2023/09/26 09:45:13;;;;;;;12.38;8.68;;;;;;;;;;4972521;28;20079;-63
2023/09/26 09:47:42;;;;;;;12.98;8.45;;;;;;;;;;4973196;28;20062;-64
2023/09/26 09:50:08;;;;;;;10.90;7.90;;;;;;;;;;4973655;28;20353;-63
2023/09/26 09:52:34;;;;;;;12.10;8.02;;;;;;;;;;4973262;28;20015;-63
2023/09/26 09:55:04;;;;;;;13.60;10.43;;;;;;;;;;4972412;28;20101;-63
2023/09/26 09:57:33;;;;;;;12.77;8.85;;;;;;;;;;4989602;28;20451;-64
2023/09/26 10:00:00;;;;;;;13.80;9.10;;;;;;;;;;4977703;28;20579;-63
2023/09/26 10:02:26;;;;;;;15.18;10.32;;;;;;;;;;4973688;28;20038;-63
2023/09/26 10:04:55;;;;;;;14.77;9.55;;;;;;;;;;4973206;28;20038;-65
2023/09/26 10:07:24;;;;;;;11.52;9.27;;;;;;;;;;4973515;28;20031;-64
2023/09/26 10:09:50;;;;;;;14.98;9.70;;;;;;;;;;4973634;28;20659;-63
2023/09/26 10:12:17;;;;;;;13.50;9.27;;;;;;;;;;4972476;28;20039;-65
2023/09/26 10:14:42;;;;;;;11.02;9.32;;;;;;;;;;4972984;28;20580;-64
2023/09/26 10:17:08;;;;;;;12.00;8.77;;;;;;;;;;4972612;28;20039;-64
2023/09/26 10:19:34;;;;;;;12.40;9.20;;;;;;;;;;4972812;28;20090;-64
2023/09/26 10:22:21;;;;;;;16.33;9.95;;;;;;;;;;4972905;28;20031;-63
2023/09/26 10:24:53;;;;;;;14.25;9.25;;;;;;;;;;4972035;28;20026;-64
2023/09/26 10:27:31;;;;;;;16.15;9.65;;;;;;;;;;4970733;28;20046;-64
2023/09/26 10:29:57;;;;;;;13.35;9.35;;;;;;;;;;4970990;28;20037;-64
2023/09/26 10:32:35;;;;;;;13.68;8.68;;;;;;;;;;4972343;28;20030;-64
2023/09/26 10:35:21;;;;;;;13.30;8.50;;;;;;;;;;4954056;28;20043;-63
2023/09/26 10:37:54;;;;;;;12.57;8.95;;;;;;;;;;4954023;28;20031;-65
2023/09/26 10:40:19;;;;;;;11.27;8.50;;;;;;;;;;4957804;28;20340;-66
2023/09/26 10:42:49;;;;;;;13.30;8.80;;;;;;;;;;4973246;28;20026;-66
2023/09/26 10:45:15;;;;;;;15.13;9.13;;;;;;;;;;4973096;28;20034;-66
2023/09/26 10:47:41;;;;;;;10.60;8.82;;;;;;;;;;4972836;28;20082;-67
2023/09/26 10:50:09;;;;;;;12.32;9.35;;;;;;;;;;4973244;28;20113;-66
2023/09/26 10:52:35;;;;;;;13.98;9.23;;;;;;;;;;4973006;28;20114;-64
2023/09/26 10:55:04;;;;;;;15.05;8.30;;;;;;;;;;4972968;28;20027;-64
2023/09/26 10:57:30;;;;;;;11.00;8.23;;;;;;;;;;4992027;28;20030;-64
2023/09/26 10:59:56;;;;;;;12.50;7.47;;;;;;;;;;4992563;28;20077;-64
2023/09/26 11:02:22;;;;;;;11.75;8.18;;;;;;;;;;4975248;28;20113;-66
2023/09/26 11:04:47;;;;;;;10.38;6.85;;;;;;;;;;4976645;28;20109;-65
2023/09/26 11:07:14;;;;;;;9.80;7.75;;;;;;;;;;4976471;28;20126;-64
2023/09/26 11:09:41;;;;;;;12.25;7.57;;;;;;;;;;4976147;28;20082;-64
2023/09/26 11:12:07;;;;;;;10.07;6.70;;;;;;;;;;4976424;28;20058;-66
2023/09/26 11:14:32;;;;;;;8.20;5.72;;;;;;;;;;4976423;28;20070;-65
2023/09/26 11:16:58;;;;;;;11.65;8.30;;;;;;;;;;4976318;28;20081;-65
2023/09/26 11:19:27;;;;;;;11.75;8.52;;;;;;;;;;4976080;28;20026;-66
2023/09/26 11:21:54;;;;;;;15.25;8.40;;;;;;;;;;4976088;28;20038;-66
2023/09/26 11:24:30;;;;;;;12.27;8.13;;;;;;;;;;4975717;28;20030;-64
2023/09/26 11:26:58;;;;;;;10.13;6.45;;;;;;;;;;4976055;28;20477;-64
2023/09/26 11:29:24;;;;;;;11.88;7.03;;;;;;;;;;4975912;28;20440;-64
2023/09/26 11:31:52;;;;;;;12.90;6.82;;;;;;;;;;4976009;28;20133;-64
2023/09/26 11:34:18;;;;;;;13.98;7.53;;;;;;;;;;4976057;28;20056;-64
2023/09/26 11:36:44;;;;;;;8.82;6.78;;;;;;;;;;4975894;28;20443;-64
2023/09/26 11:39:22;;;;;;;10.80;6.10;;;;;;;;;;4975714;28;20568;-63
2023/09/26 11:42:17;;;;;;;13.80;5.97;;;;;;;;;;4975839;28;20366;-64
2023/09/26 11:44:54;;;;;;;12.45;7.30;;;;;;;;;;4975588;28;20031;-63
2023/09/26 11:47:24;;;;;;;11.20;7.88;;;;;;;;;;4975317;28;20046;-64
2023/09/26 11:49:51;;;;;;;9.98;7.13;;;;;;;;;;4975782;28;20114;-64
2023/09/26 11:52:17;;;;;;;12.25;7.72;;;;;;;;;;4975589;28;20038;-64
2023/09/26 11:54:46;;;;;;;10.05;6.20;;;;;;;;;;4974254;28;20027;-64
2023/09/26 11:57:12;;;;;;;11.32;6.18;;;;;;;;;;4989143;28;20572;-63
2023/09/26 11:59:38;;;;;;;11.50;6.75;;;;;;;;;;4994775;28;20030;-66
2023/09/26 12:02:04;;;;;;;10.55;7.60;;;;;;;;;;4979541;28;20030;-64
2023/09/26 12:04:32;;;;;;;10.07;6.93;;;;;;;;;;4975508;28;20037;-64
2023/09/26 12:06:58;;;;;;;12.25;7.15;;;;;;;;;;4974199;28;20373;-64
2023/09/26 12:09:23;;;;;;;11.20;6.85;;;;;;;;;;4974562;28;20023;-63
2023/09/26 12:11:51;;;;;;;12.43;6.70;;;;;;;;;;4975289;28;20031;-63
2023/09/26 12:14:17;;;;;;;11.30;6.55;;;;;;;;;;4975408;28;20030;-63
2023/09/26 12:16:44;;;;;;;7.80;5.68;;;;;;;;;;4975204;28;20023;-64
2023/09/26 12:19:10;;;;;;;8.90;5.30;;;;;;;;;;4975046;28;20416;-64
2023/09/26 12:21:35;;;;;;;8.02;4.57;;;;;;;;;;4974699;28;20387;-63
2023/09/26 12:24:01;;;;;;;12.10;5.20;;;;;;;;;;4974696;28;20117;-63
2023/09/26 12:26:28;;;;;;;9.50;4.32;;;;;;;;;;4974951;28;20085;-64
2023/09/26 12:28:53;;;;;;;7.95;4.53;;;;;;;;;;4973662;28;20432;-64
2023/09/26 12:31:19;;;;;;;11.25;4.50;;;;;;;;;;4974779;28;20089;-63
2023/09/26 12:33:44;;;;;;;8.00;4.47;;;;;;;;;;4974520;28;20030;-63
2023/09/26 12:36:10;;;;;;;8.48;4.97;;;;;;;;;;4974667;28;20031;-63
2023/09/26 12:38:35;;;;;;;8.10;4.97;;;;;;;;;;4974723;28;20026;-63
2023/09/26 12:41:01;;;;;;;7.75;4.43;;;;;;;;;;4974619;28;20499;-63
2023/09/26 12:43:26;;;;;;;7.13;4.30;;;;;;;;;;4974198;28;20034;-63
2023/09/26 12:45:52;;;;;;;6.25;3.38;;;;;;;;;;4974378;28;20034;-63
2023/09/26 12:48:19;;;;;;;9.65;4.30;;;;;;;;;;4974496;28;20043;-63
2023/09/26 12:50:45;;;;;;;6.38;4.13;;;;;;;;;;4974395;28;20106;-63
2023/09/26 12:53:10;;;;;;;7.22;4.45;;;;;;;;;;4974655;28;20441;-63
2023/09/26 12:55:38;;;;;;;6.90;3.97;;;;;;;;;;4975082;28;20098;-63
2023/09/26 12:58:04;;;;;;;6.03;4.22;;;;;;;;;;4994141;28;20030;-63
2023/09/26 13:00:29;;;;;;;7.63;4.05;;;;;;;;;;4993944;28;20081;-64
2023/09/26 13:02:55;;;;;;;8.43;4.15;;;;;;;;;;4982693;28;20472;-64
2023/09/26 13:05:21;;;;;;;11.10;5.00;;;;;;;;;;4973549;28;20026;-63
2023/09/26 13:07:47;;;;;;;5.55;3.72;;;;;;;;;;4974223;28;20450;-63
2023/09/26 13:10:12;;;;;;;8.13;4.30;;;;;;;;;;4974192;28;20027;-63
2023/09/26 13:12:38;;;;;;;13.30;4.60;;;;;;;;;;4973904;28;20039;-63
2023/09/26 13:15:04;;;;;;;8.75;4.13;;;;;;;;;;4973849;28;20023;-63
2023/09/26 13:17:31;;;;;;;7.80;4.18;;;;;;;;;;4973884;28;20031;-63
2023/09/26 13:19:56;;;;;;;7.88;4.35;;;;;;;;;;4973430;28;20488;-63
2023/09/26 13:22:22;;;;;;;7.03;4.40;;;;;;;;;;4973956;28;20066;-63
2023/09/26 13:24:47;;;;;;;5.47;4.00;;;;;;;;;;4973902;28;20030;-62
2023/09/26 13:27:13;;;;;;;8.48;4.28;;;;;;;;;;4974044;28;20023;-62
2023/09/26 13:29:38;;;;;;;9.23;4.80;;;;;;;;;;4973910;28;20038;-65
2023/09/26 13:32:04;;;;;;;6.30;4.38;;;;;;;;;;4972905;28;20022;-63
2023/09/26 13:34:29;;;;;;;8.85;3.95;;;;;;;;;;4973516;28;20023;-64
2023/09/26 13:36:55;;;;;;;9.93;4.95;;;;;;;;;;4973985;28;20556;-63
2023/09/26 13:39:22;;;;;;;14.05;4.85;;;;;;;;;;4973867;28;20114;-63
2023/09/26 13:41:47;;;;;;;6.97;4.45;;;;;;;;;;4973837;28;20031;-63
2023/09/26 13:44:13;;;;;;;6.30;4.22;;;;;;;;;;4973924;28;20026;-63
2023/09/26 13:46:39;;;;;;;8.10;4.20;;;;;;;;;;4973603;28;20419;-63
2023/09/26 13:49:05;;;;;;;7.95;4.70;;;;;;;;;;4973294;28;20045;-63
2023/09/26 13:51:31;;;;;;;10.25;4.57;;;;;;;;;;4973871;28;20045;-63
2023/09/26 13:53:57;;;;;;;9.90;4.55;;;;;;;;;;4973938;28;20031;-63
2023/09/26 13:56:23;;;;;;;10.02;4.50;;;;;;;;;;4973703;28;20041;-63
2023/09/26 13:58:48;;;;;;;6.70;4.22;;;;;;;;;;4973597;28;20023;-63
2023/09/26 14:01:13;;;;;;;9.95;4.38;;;;;;;;;;4973921;28;20038;-63
2023/09/26 14:03:39;;;;;;;6.43;4.45;;;;;;;;;;4973320;28;20403;-63
2023/09/26 14:06:04;;;;;;;7.07;4.72;;;;;;;;;;4973536;28;20420;-64
2023/09/26 14:08:31;;;;;;;8.10;4.40;;;;;;;;;;4973571;28;20043;-63
2023/09/26 14:10:56;;;;;;;8.77;4.45;;;;;;;;;;4973763;28;20034;-63
2023/09/26 14:13:23;;;;;;;8.15;4.10;;;;;;;;;;4973161;28;20103;-64
2023/09/26 14:15:50;;;;;;;9.38;4.80;;;;;;;;;;4973526;28;20476;-63
2023/09/26 14:18:15;;;;;;;14.35;4.85;;;;;;;;;;4973497;28;20400;-64
2023/09/26 14:20:40;;;;;;;14.32;4.80;;;;;;;;;;4973609;28;20018;-65
2023/09/26 14:23:06;;;;;;;11.55;5.22;;;;;;;;;;4973396;28;20023;-64
2023/09/26 14:25:31;;;;;;;12.77;5.07;;;;;;;;;;4973238;28;20539;-64
2023/09/26 14:28:00;;;;;;;9.43;5.70;;;;;;;;;;4973376;28;20035;-63